Notre-Dame-Du-Laus, Canada
Current Conditions -  °F | °C
As of 2:31 PM on Monday 20 Oct 2014 (Local Time) from CYND Reporting Station
Light Rain Light Rain  
Wind Chill: 37°   Ceiling: 3000
Heat Index: 41°   Visibility: 15mi
Dew Point: 32°   Wind: 6mph
Humidity: 70%   Direction: 90°E
Pressure: 29.91"   Gusts: NA
Location:  46.08°N, 75.62°W
Report Text: CYND 201831Z 09005KT 15SM -RA OVC030 05/00 A2991 RMK SC8 SLP131
Loading
Personal Weather Stations






























Interactive Weather Map
Tropical Storm Tracking
New forecast layout! Learn more

10-Day Weather Forecast

Advertisements
Track Severe Weather on mobile